sensor_id;sensor_type;location;lat;lon;timestamp;P1;durP1;ratioP1;P2;durP2;ratioP2
7493;SDS011;3788;49.902;8.590;2023-01-13T00:02:24;0.90;;;0.73;;
7493;SDS011;3788;49.902;8.590;2023-01-13T00:04:51;1.77;;;1.07;;
7493;SDS011;3788;49.902;8.590;2023-01-13T00:07:18;2.43;;;0.80;;
7493;SDS011;3788;49.902;8.590;2023-01-13T00:09:45;2.20;;;0.80;;
7493;SDS011;3788;49.902;8.590;2023-01-13T00:12:13;1.67;;;0.80;;
7493;SDS011;3788;49.902;8.590;2023-01-13T00:14:39;1.00;;;0.90;;
7493;SDS011;3788;49.902;8.590;2023-01-13T00:17:06;1.97;;;1.17;;
7493;SDS011;3788;49.902;8.590;2023-01-13T00:19:32;1.27;;;0.80;;
7493;SDS011;3788;49.902;8.590;2023-01-13T00:21:59;2.33;;;0.87;;
7493;SDS011;3788;49.902;8.590;2023-01-13T00:24:26;0.83;;;0.83;;
7493;SDS011;3788;49.902;8.590;2023-01-13T00:26:53;2.33;;;0.67;;
7493;SDS011;3788;49.902;8.590;2023-01-13T00:29:21;1.53;;;0.70;;
7493;SDS011;3788;49.902;8.590;2023-01-13T00:31:48;1.00;;;0.80;;
7493;SDS011;3788;49.902;8.590;2023-01-13T00:34:16;1.00;;;0.90;;
7493;SDS011;3788;49.902;8.590;2023-01-13T00:36:43;1.63;;;0.70;;
7493;SDS011;3788;49.902;8.590;2023-01-13T00:39:09;3.17;;;0.80;;
7493;SDS011;3788;49.902;8.590;2023-01-13T00:41:36;1.83;;;0.77;;
7493;SDS011;3788;49.902;8.590;2023-01-13T00:44:22;0.90;;;0.77;;
7493;SDS011;3788;49.902;8.590;2023-01-13T00:46:49;1.97;;;0.90;;
7493;SDS011;3788;49.902;8.590;2023-01-13T00:49:15;1.77;;;1.00;;
7493;SDS011;3788;49.902;8.590;2023-01-13T00:51:42;0.87;;;0.87;;
7493;SDS011;3788;49.902;8.590;2023-01-13T00:54:09;2.00;;;0.80;;
7493;SDS011;3788;49.902;8.590;2023-01-13T00:56:36;1.17;;;0.80;;
7493;SDS011;3788;49.902;8.590;2023-01-13T00:59:02;0.77;;;0.70;;
7493;SDS011;3788;49.902;8.590;2023-01-13T01:01:31;1.63;;;1.10;;
7493;SDS011;3788;49.902;8.590;2023-01-13T01:03:58;5.13;;;1.00;;
7493;SDS011;3788;49.902;8.590;2023-01-13T01:06:25;0.73;;;0.63;;
7493;SDS011;3788;49.902;8.590;2023-01-13T01:08:53;0.77;;;0.70;;
7493;SDS011;3788;49.902;8.590;2023-01-13T01:11:21;1.83;;;0.80;;
7493;SDS011;3788;49.902;8.590;2023-01-13T01:13:50;2.60;;;0.90;;
7493;SDS011;3788;49.902;8.590;2023-01-13T01:16:18;0.90;;;0.70;;
7493;SDS011;3788;49.902;8.590;2023-01-13T01:18:48;1.87;;;1.07;;
7493;SDS011;3788;49.902;8.590;2023-01-13T01:21:16;1.03;;;0.60;;
7493;SDS011;3788;49.902;8.590;2023-01-13T01:23:43;1.13;;;0.60;;
7493;SDS011;3788;49.902;8.590;2023-01-13T01:26:11;1.83;;;0.90;;
7493;SDS011;3788;49.902;8.590;2023-01-13T01:28:39;1.73;;;0.90;;
7493;SDS011;3788;49.902;8.590;2023-01-13T01:31:06;1.27;;;0.90;;
7493;SDS011;3788;49.902;8.590;2023-01-13T01:33:34;3.20;;;0.60;;
7493;SDS011;3788;49.902;8.590;2023-01-13T01:36:02;2.27;;;0.70;;
7493;SDS011;3788;49.902;8.590;2023-01-13T01:38:29;0.90;;;0.70;;
7493;SDS011;3788;49.902;8.590;2023-01-13T01:40:56;1.40;;;0.77;;
7493;SDS011;3788;49.902;8.590;2023-01-13T01:43:43;0.80;;;0.80;;
7493;SDS011;3788;49.902;8.590;2023-01-13T01:46:23;0.60;;;0.60;;
7493;SDS011;3788;49.902;8.590;2023-01-13T01:48:50;2.03;;;0.70;;
7493;SDS011;3788;49.902;8.590;2023-01-13T01:51:22;1.30;;;0.80;;
7493;SDS011;3788;49.902;8.590;2023-01-13T01:53:50;3.00;;;0.90;;
7493;SDS011;3788;49.902;8.590;2023-01-13T01:56:18;6.53;;;1.37;;
7493;SDS011;3788;49.902;8.590;2023-01-13T01:58:46;1.23;;;0.70;;
7493;SDS011;3788;49.902;8.590;2023-01-13T02:01:15;0.97;;;0.77;;
7493;SDS011;3788;49.902;8.590;2023-01-13T02:03:43;0.60;;;0.60;;
7493;SDS011;3788;49.902;8.590;2023-01-13T02:06:15;1.60;;;0.87;;
7493;SDS011;3788;49.902;8.590;2023-01-13T02:08:43;0.70;;;0.70;;
7493;SDS011;3788;49.902;8.590;2023-01-13T02:11:28;0.90;;;0.53;;
7493;SDS011;3788;49.902;8.590;2023-01-13T02:14:15;1.33;;;0.70;;
7493;SDS011;3788;49.902;8.590;2023-01-13T02:16:45;0.80;;;0.80;;
7493;SDS011;3788;49.902;8.590;2023-01-13T02:22:24;1.23;;;0.80;;
7493;SDS011;3788;49.902;8.590;2023-01-13T02:25:10;2.30;;;0.97;;
7493;SDS011;3788;49.902;8.590;2023-01-13T02:28:16;4.00;;;1.07;;
7493;SDS011;3788;49.902;8.590;2023-01-13T02:31:04;1.53;;;0.70;;
7493;SDS011;3788;49.902;8.590;2023-01-13T02:34:03;0.77;;;0.77;;
7493;SDS011;3788;49.902;8.590;2023-01-13T02:36:37;1.37;;;0.97;;
7493;SDS011;3788;49.902;8.590;2023-01-13T02:39:11;0.90;;;0.70;;
7493;SDS011;3788;49.902;8.590;2023-01-13T02:41:45;0.60;;;0.60;;
7493;SDS011;3788;49.902;8.590;2023-01-13T02:44:42;1.47;;;0.73;;
7493;SDS011;3788;49.902;8.590;2023-01-13T02:47:16;0.90;;;0.80;;
7493;SDS011;3788;49.902;8.590;2023-01-13T02:49:45;3.27;;;0.87;;
7493;SDS011;3788;49.902;8.590;2023-01-13T02:52:16;1.27;;;0.80;;
7493;SDS011;3788;49.902;8.590;2023-01-13T02:54:50;0.67;;;0.67;;
7493;SDS011;3788;49.902;8.590;2023-01-13T02:57:21;0.97;;;0.70;;
7493;SDS011;3788;49.902;8.590;2023-01-13T02:59:51;0.70;;;0.70;;
7493;SDS011;3788;49.902;8.590;2023-01-13T03:02:21;0.60;;;0.60;;
7493;SDS011;3788;49.902;8.590;2023-01-13T03:04:51;1.87;;;0.70;;
7493;SDS011;3788;49.902;8.590;2023-01-13T03:07:31;1.20;;;0.90;;
7493;SDS011;3788;49.902;8.590;2023-01-13T03:10:14;0.60;;;0.60;;
7493;SDS011;3788;49.902;8.590;2023-01-13T03:12:49;1.63;;;0.77;;
7493;SDS011;3788;49.902;8.590;2023-01-13T03:15:22;1.20;;;0.83;;
7493;SDS011;3788;49.902;8.590;2023-01-13T03:18:04;2.00;;;0.90;;
7493;SDS011;3788;49.902;8.590;2023-01-13T03:20:40;0.60;;;0.60;;
7493;SDS011;3788;49.902;8.590;2023-01-13T03:23:14;1.60;;;0.80;;
7493;SDS011;3788;49.902;8.590;2023-01-13T03:25:49;1.27;;;0.90;;
7493;SDS011;3788;49.902;8.590;2023-01-13T03:28:22;0.57;;;0.50;;
7493;SDS011;3788;49.902;8.590;2023-01-13T03:30:54;0.70;;;0.70;;
7493;SDS011;3788;49.902;8.590;2023-01-13T03:33:26;1.30;;;0.80;;
7493;SDS011;3788;49.902;8.590;2023-01-13T03:35:56;0.70;;;0.60;;
7493;SDS011;3788;49.902;8.590;2023-01-13T03:38:27;0.60;;;0.60;;
7493;SDS011;3788;49.902;8.590;2023-01-13T03:40:56;1.30;;;0.70;;
7493;SDS011;3788;49.902;8.590;2023-01-13T03:43:27;2.40;;;0.90;;
7493;SDS011;3788;49.902;8.590;2023-01-13T03:46:15;0.70;;;0.70;;
7493;SDS011;3788;49.902;8.590;2023-01-13T03:48:47;1.13;;;0.53;;
7493;SDS011;3788;49.902;8.590;2023-01-13T03:51:16;2.53;;;1.10;;
7493;SDS011;3788;49.902;8.590;2023-01-13T03:53:48;1.00;;;0.70;;
7493;SDS011;3788;49.902;8.590;2023-01-13T03:56:19;0.70;;;0.67;;
7493;SDS011;3788;49.902;8.590;2023-01-13T03:58:50;1.30;;;0.70;;
7493;SDS011;3788;49.902;8.590;2023-01-13T04:01:19;1.07;;;0.60;;
7493;SDS011;3788;49.902;8.590;2023-01-13T04:03:51;1.17;;;0.60;;
7493;SDS011;3788;49.902;8.590;2023-01-13T04:06:23;2.97;;;1.20;;
7493;SDS011;3788;49.902;8.590;2023-01-13T04:11:41;1.47;;;0.70;;
7493;SDS011;3788;49.902;8.590;2023-01-13T04:14:13;2.23;;;0.93;;
7493;SDS011;3788;49.902;8.590;2023-01-13T04:16:44;1.03;;;0.70;;
7493;SDS011;3788;49.902;8.590;2023-01-13T04:19:14;0.60;;;0.60;;
7493;SDS011;3788;49.902;8.590;2023-01-13T04:21:40;2.10;;;0.70;;
7493;SDS011;3788;49.902;8.590;2023-01-13T04:24:07;1.63;;;0.80;;
7493;SDS011;3788;49.902;8.590;2023-01-13T04:26:34;0.70;;;0.70;;
7493;SDS011;3788;49.902;8.590;2023-01-13T04:29:01;0.73;;;0.73;;
7493;SDS011;3788;49.902;8.590;2023-01-13T04:31:27;0.57;;;0.57;;
7493;SDS011;3788;49.902;8.590;2023-01-13T04:33:54;2.10;;;0.80;;
7493;SDS011;3788;49.902;8.590;2023-01-13T04:36:22;0.50;;;0.50;;
7493;SDS011;3788;49.902;8.590;2023-01-13T04:38:51;0.63;;;0.63;;
7493;SDS011;3788;49.902;8.590;2023-01-13T04:41:18;1.27;;;1.13;;
7493;SDS011;3788;49.902;8.590;2023-01-13T04:43:44;1.33;;;0.63;;
7493;SDS011;3788;49.902;8.590;2023-01-13T04:46:11;0.50;;;0.50;;
7493;SDS011;3788;49.902;8.590;2023-01-13T04:48:38;0.73;;;0.73;;
7493;SDS011;3788;49.902;8.590;2023-01-13T04:51:05;0.60;;;0.60;;
7493;SDS011;3788;49.902;8.590;2023-01-13T04:53:33;0.53;;;0.53;;
7493;SDS011;3788;49.902;8.590;2023-01-13T04:56:00;0.50;;;0.50;;
7493;SDS011;3788;49.902;8.590;2023-01-13T04:58:26;0.60;;;0.60;;
7493;SDS011;3788;49.902;8.590;2023-01-13T05:00:53;0.60;;;0.60;;
7493;SDS011;3788;49.902;8.590;2023-01-13T05:03:20;0.57;;;0.57;;
7493;SDS011;3788;49.902;8.590;2023-01-13T05:05:49;0.93;;;0.67;;
7493;SDS011;3788;49.902;8.590;2023-01-13T05:08:16;2.27;;;0.60;;
7493;SDS011;3788;49.902;8.590;2023-01-13T05:10:44;0.97;;;0.90;;
7493;SDS011;3788;49.902;8.590;2023-01-13T05:13:11;2.50;;;0.90;;
7493;SDS011;3788;49.902;8.590;2023-01-13T05:15:55;1.00;;;0.70;;
7493;SDS011;3788;49.902;8.590;2023-01-13T05:18:40;0.60;;;0.60;;
7493;SDS011;3788;49.902;8.590;2023-01-13T05:21:06;0.57;;;0.57;;
7493;SDS011;3788;49.902;8.590;2023-01-13T05:23:53;0.93;;;0.50;;
7493;SDS011;3788;49.902;8.590;2023-01-13T05:26:39;0.80;;;0.80;;
7493;SDS011;3788;49.902;8.590;2023-01-13T05:29:05;2.10;;;0.60;;
7493;SDS011;3788;49.902;8.590;2023-01-13T05:31:32;0.93;;;0.60;;
7493;SDS011;3788;49.902;8.590;2023-01-13T05:33:59;1.37;;;1.07;;
7493;SDS011;3788;49.902;8.590;2023-01-13T05:36:25;0.80;;;0.70;;
7493;SDS011;3788;49.902;8.590;2023-01-13T05:38:52;2.43;;;0.83;;
7493;SDS011;3788;49.902;8.590;2023-01-13T05:41:18;1.70;;;0.80;;
7493;SDS011;3788;49.902;8.590;2023-01-13T05:44:04;1.37;;;0.90;;
7493;SDS011;3788;49.902;8.590;2023-01-13T05:46:31;1.13;;;0.93;;
7493;SDS011;3788;49.902;8.590;2023-01-13T05:48:57;0.70;;;0.70;;
7493;SDS011;3788;49.902;8.590;2023-01-13T05:51:25;1.70;;;0.80;;
7493;SDS011;3788;49.902;8.590;2023-01-13T05:53:52;0.80;;;0.80;;
7493;SDS011;3788;49.902;8.590;2023-01-13T05:56:19;0.60;;;0.60;;
7493;SDS011;3788;49.902;8.590;2023-01-13T05:58:46;0.60;;;0.60;;
7493;SDS011;3788;49.902;8.590;2023-01-13T06:01:14;2.47;;;0.80;;
7493;SDS011;3788;49.902;8.590;2023-01-13T06:03:41;3.30;;;1.97;;
7493;SDS011;3788;49.902;8.590;2023-01-13T06:06:08;3.03;;;1.40;;
7493;SDS011;3788;49.902;8.590;2023-01-13T06:08:35;1.40;;;0.80;;
7493;SDS011;3788;49.902;8.590;2023-01-13T06:11:01;1.97;;;0.60;;
7493;SDS011;3788;49.902;8.590;2023-01-13T06:13:28;1.23;;;0.77;;
7493;SDS011;3788;49.902;8.590;2023-01-13T06:15:55;0.60;;;0.60;;
7493;SDS011;3788;49.902;8.590;2023-01-13T06:18:24;2.67;;;0.60;;
7493;SDS011;3788;49.902;8.590;2023-01-13T06:20:51;0.87;;;0.60;;
7493;SDS011;3788;49.902;8.590;2023-01-13T06:23:18;0.60;;;0.60;;
7493;SDS011;3788;49.902;8.590;2023-01-13T06:25:45;0.60;;;0.50;;
7493;SDS011;3788;49.902;8.590;2023-01-13T06:28:16;0.73;;;0.50;;
7493;SDS011;3788;49.902;8.590;2023-01-13T06:30:44;0.50;;;0.50;;
7493;SDS011;3788;49.902;8.590;2023-01-13T06:33:15;0.70;;;0.50;;
7493;SDS011;3788;49.902;8.590;2023-01-13T06:35:48;0.50;;;0.50;;
7493;SDS011;3788;49.902;8.590;2023-01-13T06:38:18;0.60;;;0.40;;
7493;SDS011;3788;49.902;8.590;2023-01-13T06:40:47;0.57;;;0.57;;
7493;SDS011;3788;49.902;8.590;2023-01-13T06:43:14;1.30;;;0.53;;
7493;SDS011;3788;49.902;8.590;2023-01-13T06:45:45;0.70;;;0.57;;
7493;SDS011;3788;49.902;8.590;2023-01-13T06:48:14;0.50;;;0.50;;
7493;SDS011;3788;49.902;8.590;2023-01-13T06:50:41;0.60;;;0.60;;
7493;SDS011;3788;49.902;8.590;2023-01-13T06:53:09;0.70;;;0.60;;
7493;SDS011;3788;49.902;8.590;2023-01-13T06:55:36;0.73;;;0.60;;
7493;SDS011;3788;49.902;8.590;2023-01-13T06:58:03;0.60;;;0.60;;
7493;SDS011;3788;49.902;8.590;2023-01-13T07:00:30;1.53;;;0.70;;
7493;SDS011;3788;49.902;8.590;2023-01-13T07:03:08;1.23;;;0.47;;
7493;SDS011;3788;49.902;8.590;2023-01-13T07:05:37;1.00;;;0.70;;
7493;SDS011;3788;49.902;8.590;2023-01-13T07:08:04;0.63;;;0.60;;
7493;SDS011;3788;49.902;8.590;2023-01-13T07:10:32;1.40;;;0.70;;
7493;SDS011;3788;49.902;8.590;2023-01-13T07:13:00;0.77;;;0.60;;
7493;SDS011;3788;49.902;8.590;2023-01-13T07:15:51;0.70;;;0.70;;
7493;SDS011;3788;49.902;8.590;2023-01-13T07:18:20;0.70;;;0.63;;
7493;SDS011;3788;49.902;8.590;2023-01-13T07:20:50;0.93;;;0.60;;
7493;SDS011;3788;49.902;8.590;2023-01-13T07:23:17;0.50;;;0.50;;
7493;SDS011;3788;49.902;8.590;2023-01-13T07:25:45;1.37;;;0.60;;
7493;SDS011;3788;49.902;8.590;2023-01-13T07:28:12;0.70;;;0.70;;
7493;SDS011;3788;49.902;8.590;2023-01-13T07:30:39;0.53;;;0.50;;
7493;SDS011;3788;49.902;8.590;2023-01-13T07:33:06;0.60;;;0.60;;
7493;SDS011;3788;49.902;8.590;2023-01-13T07:35:33;0.50;;;0.50;;
7493;SDS011;3788;49.902;8.590;2023-01-13T07:38:00;2.47;;;0.60;;
7493;SDS011;3788;49.902;8.590;2023-01-13T07:40:26;0.77;;;0.50;;
7493;SDS011;3788;49.902;8.590;2023-01-13T07:42:55;2.40;;;0.60;;
7493;SDS011;3788;49.902;8.590;2023-01-13T07:45:39;1.07;;;0.50;;
7493;SDS011;3788;49.902;8.590;2023-01-13T07:48:06;0.60;;;0.60;;
7493;SDS011;3788;49.902;8.590;2023-01-13T07:50:34;1.10;;;0.60;;
7493;SDS011;3788;49.902;8.590;2023-01-13T07:53:01;0.60;;;0.60;;
7493;SDS011;3788;49.902;8.590;2023-01-13T07:55:28;0.53;;;0.53;;
7493;SDS011;3788;49.902;8.590;2023-01-13T07:57:56;0.77;;;0.63;;
7493;SDS011;3788;49.902;8.590;2023-01-13T08:00:22;0.60;;;0.60;;
7493;SDS011;3788;49.902;8.590;2023-01-13T08:02:49;0.77;;;0.73;;
7493;SDS011;3788;49.902;8.590;2023-01-13T08:05:16;0.60;;;0.50;;
7493;SDS011;3788;49.902;8.590;2023-01-13T08:07:43;0.50;;;0.50;;
7493;SDS011;3788;49.902;8.590;2023-01-13T08:10:09;0.57;;;0.53;;
7493;SDS011;3788;49.902;8.590;2023-01-13T08:12:36;0.60;;;0.60;;
7493;SDS011;3788;49.902;8.590;2023-01-13T08:15:22;0.70;;;0.50;;
7493;SDS011;3788;49.902;8.590;2023-01-13T08:17:49;0.87;;;0.50;;
7493;SDS011;3788;49.902;8.590;2023-01-13T08:20:15;1.50;;;0.60;;
7493;SDS011;3788;49.902;8.590;2023-01-13T08:22:43;1.13;;;0.80;;
7493;SDS011;3788;49.902;8.590;2023-01-13T08:25:09;0.77;;;0.77;;
7493;SDS011;3788;49.902;8.590;2023-01-13T08:27:36;2.20;;;0.80;;
7493;SDS011;3788;49.902;8.590;2023-01-13T08:30:04;0.70;;;0.70;;
7493;SDS011;3788;49.902;8.590;2023-01-13T08:32:33;0.57;;;0.57;;
7493;SDS011;3788;49.902;8.590;2023-01-13T08:35:00;1.53;;;0.70;;
7493;SDS011;3788;49.902;8.590;2023-01-13T08:37:26;1.80;;;1.10;;
7493;SDS011;3788;49.902;8.590;2023-01-13T08:39:53;0.50;;;0.50;;
7493;SDS011;3788;49.902;8.590;2023-01-13T08:42:20;1.97;;;0.60;;
7493;SDS011;3788;49.902;8.590;2023-01-13T08:44:47;1.30;;;0.90;;
7493;SDS011;3788;49.902;8.590;2023-01-13T08:47:13;1.03;;;0.60;;
7493;SDS011;3788;49.902;8.590;2023-01-13T08:49:41;0.60;;;0.60;;
7493;SDS011;3788;49.902;8.590;2023-01-13T08:52:08;1.77;;;0.80;;
7493;SDS011;3788;49.902;8.590;2023-01-13T08:54:36;1.23;;;1.13;;
7493;SDS011;3788;49.902;8.590;2023-01-13T08:57:02;0.77;;;0.70;;
7493;SDS011;3788;49.902;8.590;2023-01-13T08:59:29;0.83;;;0.70;;
7493;SDS011;3788;49.902;8.590;2023-01-13T09:01:56;0.93;;;0.70;;
7493;SDS011;3788;49.902;8.590;2023-01-13T09:04:24;0.87;;;0.63;;
7493;SDS011;3788;49.902;8.590;2023-01-13T09:06:54;1.13;;;0.90;;
7493;SDS011;3788;49.902;8.590;2023-01-13T09:09:21;2.77;;;0.70;;
7493;SDS011;3788;49.902;8.590;2023-01-13T09:11:50;1.83;;;0.60;;
7493;SDS011;3788;49.902;8.590;2023-01-13T09:14:35;2.70;;;0.90;;
7493;SDS011;3788;49.902;8.590;2023-01-13T09:17:03;0.50;;;0.50;;
7493;SDS011;3788;49.902;8.590;2023-01-13T09:19:31;2.50;;;0.90;;
7493;SDS011;3788;49.902;8.590;2023-01-13T09:21:59;2.53;;;0.90;;
7493;SDS011;3788;49.902;8.590;2023-01-13T09:24:26;1.60;;;0.87;;
7493;SDS011;3788;49.902;8.590;2023-01-13T09:26:53;2.73;;;1.00;;
7493;SDS011;3788;49.902;8.590;2023-01-13T09:29:19;3.83;;;1.00;;
7493;SDS011;3788;49.902;8.590;2023-01-13T09:31:46;0.73;;;0.73;;
7493;SDS011;3788;49.902;8.590;2023-01-13T09:34:14;2.60;;;1.03;;
7493;SDS011;3788;49.902;8.590;2023-01-13T09:37:00;1.03;;;0.70;;
7493;SDS011;3788;49.902;8.590;2023-01-13T09:39:28;1.40;;;0.90;;
7493;SDS011;3788;49.902;8.590;2023-01-13T09:41:55;0.93;;;0.90;;
7493;SDS011;3788;49.902;8.590;2023-01-13T09:44:46;1.47;;;0.80;;
7493;SDS011;3788;49.902;8.590;2023-01-13T09:47:20;1.13;;;0.77;;
7493;SDS011;3788;49.902;8.590;2023-01-13T09:49:51;1.83;;;1.10;;
7493;SDS011;3788;49.902;8.590;2023-01-13T09:52:25;3.40;;;1.33;;
7493;SDS011;3788;49.902;8.590;2023-01-13T09:54:54;1.37;;;0.83;;
7493;SDS011;3788;49.902;8.590;2023-01-13T09:57:30;3.67;;;1.00;;
7493;SDS011;3788;49.902;8.590;2023-01-13T10:00:02;2.17;;;0.90;;
7493;SDS011;3788;49.902;8.590;2023-01-13T10:02:42;1.53;;;1.23;;
7493;SDS011;3788;49.902;8.590;2023-01-13T10:05:25;4.60;;;2.10;;
7493;SDS011;3788;49.902;8.590;2023-01-13T10:08:00;3.60;;;1.20;;
7493;SDS011;3788;49.902;8.590;2023-01-13T10:10:32;2.20;;;1.10;;
7493;SDS011;3788;49.902;8.590;2023-01-13T10:13:08;2.47;;;1.00;;
7493;SDS011;3788;49.902;8.590;2023-01-13T10:15:44;2.80;;;1.10;;
7493;SDS011;3788;49.902;8.590;2023-01-13T10:18:29;1.87;;;0.90;;
7493;SDS011;3788;49.902;8.590;2023-01-13T10:21:10;1.80;;;0.83;;
7493;SDS011;3788;49.902;8.590;2023-01-13T10:24:10;3.63;;;0.80;;
7493;SDS011;3788;49.902;8.590;2023-01-13T10:26:45;2.67;;;1.93;;
7493;SDS011;3788;49.902;8.590;2023-01-13T10:29:24;3.03;;;1.00;;
7493;SDS011;3788;49.902;8.590;2023-01-13T10:31:55;3.80;;;1.00;;
7493;SDS011;3788;49.902;8.590;2023-01-13T10:34:22;3.10;;;1.10;;
7493;SDS011;3788;49.902;8.590;2023-01-13T10:36:54;1.93;;;0.90;;
7493;SDS011;3788;49.902;8.590;2023-01-13T10:39:38;1.93;;;1.20;;
7493;SDS011;3788;49.902;8.590;2023-01-13T10:42:11;3.60;;;1.77;;
7493;SDS011;3788;49.902;8.590;2023-01-13T10:44:49;2.20;;;1.10;;
7493;SDS011;3788;49.902;8.590;2023-01-13T10:47:24;1.77;;;0.90;;
7493;SDS011;3788;49.902;8.590;2023-01-13T10:49:58;4.33;;;1.40;;
7493;SDS011;3788;49.902;8.590;2023-01-13T10:52:28;5.10;;;1.50;;
7493;SDS011;3788;49.902;8.590;2023-01-13T10:54:57;1.43;;;1.00;;
7493;SDS011;3788;49.902;8.590;2023-01-13T10:57:25;1.77;;;1.20;;
7493;SDS011;3788;49.902;8.590;2023-01-13T10:59:52;4.00;;;1.40;;
7493;SDS011;3788;49.902;8.590;2023-01-13T11:02:24;3.10;;;1.00;;
7493;SDS011;3788;49.902;8.590;2023-01-13T11:05:09;1.70;;;1.00;;
7493;SDS011;3788;49.902;8.590;2023-01-13T11:07:45;1.93;;;0.87;;
7493;SDS011;3788;49.902;8.590;2023-01-13T11:10:20;5.53;;;1.40;;
7493;SDS011;3788;49.902;8.590;2023-01-13T11:12:51;3.07;;;1.10;;
7493;SDS011;3788;49.902;8.590;2023-01-13T11:15:24;2.17;;;0.90;;
7493;SDS011;3788;49.902;8.590;2023-01-13T11:18:04;1.90;;;0.97;;
7493;SDS011;3788;49.902;8.590;2023-01-13T11:20:46;3.97;;;1.27;;
7493;SDS011;3788;49.902;8.590;2023-01-13T11:23:17;4.77;;;1.30;;
7493;SDS011;3788;49.902;8.590;2023-01-13T11:25:52;2.87;;;1.10;;
7493;SDS011;3788;49.902;8.590;2023-01-13T11:28:30;3.67;;;1.67;;
7493;SDS011;3788;49.902;8.590;2023-01-13T11:31:04;3.40;;;1.53;;
7493;SDS011;3788;49.902;8.590;2023-01-13T11:33:44;5.20;;;1.60;;
7493;SDS011;3788;49.902;8.590;2023-01-13T11:36:16;3.57;;;1.60;;
7493;SDS011;3788;49.902;8.590;2023-01-13T11:38:46;5.00;;;1.70;;
7493;SDS011;3788;49.902;8.590;2023-01-13T11:41:21;3.50;;;1.30;;
7493;SDS011;3788;49.902;8.590;2023-01-13T11:43:57;7.07;;;2.40;;
7493;SDS011;3788;49.902;8.590;2023-01-13T11:46:36;3.93;;;1.43;;
7493;SDS011;3788;49.902;8.590;2023-01-13T11:49:03;4.00;;;1.30;;
7493;SDS011;3788;49.902;8.590;2023-01-13T11:51:34;6.47;;;1.60;;
7493;SDS011;3788;49.902;8.590;2023-01-13T11:54:16;2.83;;;2.07;;
7493;SDS011;3788;49.902;8.590;2023-01-13T11:56:59;4.03;;;1.40;;
7493;SDS011;3788;49.902;8.590;2023-01-13T11:59:51;4.90;;;1.40;;
7493;SDS011;3788;49.902;8.590;2023-01-13T12:02:32;3.87;;;1.20;;
7493;SDS011;3788;49.902;8.590;2023-01-13T12:05:14;2.67;;;1.20;;
7493;SDS011;3788;49.902;8.590;2023-01-13T12:07:49;5.37;;;1.63;;
7493;SDS011;3788;49.902;8.590;2023-01-13T12:10:25;2.07;;;1.10;;
7493;SDS011;3788;49.902;8.590;2023-01-13T12:13:05;3.97;;;1.33;;
7493;SDS011;3788;49.902;8.590;2023-01-13T12:15:51;2.63;;;1.17;;
7493;SDS011;3788;49.902;8.590;2023-01-13T12:19:03;2.47;;;1.30;;
7493;SDS011;3788;49.902;8.590;2023-01-13T12:21:48;3.00;;;1.30;;
7493;SDS011;3788;49.902;8.590;2023-01-13T12:24:24;4.03;;;1.07;;
7493;SDS011;3788;49.902;8.590;2023-01-13T12:26:55;2.73;;;1.40;;
7493;SDS011;3788;49.902;8.590;2023-01-13T12:29:27;3.03;;;1.20;;
7493;SDS011;3788;49.902;8.590;2023-01-13T12:31:56;4.10;;;1.40;;
7493;SDS011;3788;49.902;8.590;2023-01-13T12:34:29;5.07;;;1.40;;
7493;SDS011;3788;49.902;8.590;2023-01-13T12:37:04;4.23;;;1.00;;
7493;SDS011;3788;49.902;8.590;2023-01-13T12:39:38;3.37;;;1.10;;
7493;SDS011;3788;49.902;8.590;2023-01-13T12:42:14;2.80;;;1.53;;
7493;SDS011;3788;49.902;8.590;2023-01-13T12:45:15;4.13;;;1.37;;
7493;SDS011;3788;49.902;8.590;2023-01-13T12:47:46;8.27;;;2.03;;
7493;SDS011;3788;49.902;8.590;2023-01-13T13:02:23;3.23;;;2.00;;
7493;SDS011;3788;49.902;8.590;2023-01-13T13:04:55;4.07;;;1.57;;
7493;SDS011;3788;49.902;8.590;2023-01-13T13:07:31;2.57;;;1.23;;
7493;SDS011;3788;49.902;8.590;2023-01-13T13:10:10;3.90;;;1.63;;
7493;SDS011;3788;49.902;8.590;2023-01-13T13:12:54;3.93;;;1.70;;
7493;SDS011;3788;49.902;8.590;2023-01-13T13:15:40;4.43;;;1.63;;
7493;SDS011;3788;49.902;8.590;2023-01-13T13:18:23;3.30;;;1.90;;
7493;SDS011;3788;49.902;8.590;2023-01-13T13:20:53;6.43;;;1.70;;
7493;SDS011;3788;49.902;8.590;2023-01-13T13:26:30;4.67;;;2.30;;
7493;SDS011;3788;49.902;8.590;2023-01-13T13:29:08;4.07;;;1.27;;
7493;SDS011;3788;49.902;8.590;2023-01-13T13:31:58;3.87;;;1.50;;
7493;SDS011;3788;49.902;8.590;2023-01-13T13:34:41;7.30;;;1.70;;
7493;SDS011;3788;49.902;8.590;2023-01-13T13:37:18;1.87;;;1.30;;
7493;SDS011;3788;49.902;8.590;2023-01-13T13:40:22;5.40;;;1.60;;
7493;SDS011;3788;49.902;8.590;2023-01-13T13:43:08;4.60;;;1.17;;
7493;SDS011;3788;49.902;8.590;2023-01-13T13:45:55;4.57;;;1.30;;
7493;SDS011;3788;49.902;8.590;2023-01-13T13:48:46;3.80;;;1.30;;
7493;SDS011;3788;49.902;8.590;2023-01-13T13:51:23;6.07;;;1.70;;
7493;SDS011;3788;49.902;8.590;2023-01-13T13:53:52;4.93;;;1.77;;
7493;SDS011;3788;49.902;8.590;2023-01-13T13:56:21;5.17;;;1.50;;
7493;SDS011;3788;49.902;8.590;2023-01-13T13:58:50;3.67;;;1.33;;
7493;SDS011;3788;49.902;8.590;2023-01-13T14:01:19;8.23;;;1.43;;
7493;SDS011;3788;49.902;8.590;2023-01-13T14:04:00;4.17;;;1.20;;
7493;SDS011;3788;49.902;8.590;2023-01-13T14:06:30;3.97;;;1.10;;
7493;SDS011;3788;49.902;8.590;2023-01-13T14:08:58;5.93;;;1.77;;
7493;SDS011;3788;49.902;8.590;2023-01-13T14:11:27;3.20;;;1.00;;
7493;SDS011;3788;49.902;8.590;2023-01-13T14:13:59;4.37;;;1.00;;
7493;SDS011;3788;49.902;8.590;2023-01-13T14:16:27;3.70;;;1.13;;
7493;SDS011;3788;49.902;8.590;2023-01-13T14:18:54;2.70;;;1.60;;
7493;SDS011;3788;49.902;8.590;2023-01-13T14:21:23;2.93;;;1.43;;
7493;SDS011;3788;49.902;8.590;2023-01-13T14:23:52;3.77;;;1.50;;
7493;SDS011;3788;49.902;8.590;2023-01-13T14:26:23;3.43;;;1.60;;
7493;SDS011;3788;49.902;8.590;2023-01-13T14:28:50;3.47;;;1.50;;
7493;SDS011;3788;49.902;8.590;2023-01-13T14:31:18;3.50;;;1.10;;
7493;SDS011;3788;49.902;8.590;2023-01-13T14:33:46;3.13;;;1.00;;
7493;SDS011;3788;49.902;8.590;2023-01-13T14:36:16;3.43;;;1.67;;
7493;SDS011;3788;49.902;8.590;2023-01-13T14:38:44;5.40;;;1.20;;
7493;SDS011;3788;49.902;8.590;2023-01-13T14:41:18;3.70;;;1.40;;
7493;SDS011;3788;49.902;8.590;2023-01-13T14:43:49;2.93;;;1.27;;
7493;SDS011;3788;49.902;8.590;2023-01-13T14:46:19;3.63;;;1.07;;
7493;SDS011;3788;49.902;8.590;2023-01-13T14:48:49;8.50;;;1.93;;
7493;SDS011;3788;49.902;8.590;2023-01-13T14:51:25;4.27;;;1.40;;
7493;SDS011;3788;49.902;8.590;2023-01-13T14:53:53;6.03;;;1.97;;
7493;SDS011;3788;49.902;8.590;2023-01-13T14:56:42;4.60;;;1.40;;
7493;SDS011;3788;49.902;8.590;2023-01-13T15:02:33;3.80;;;1.20;;
7493;SDS011;3788;49.902;8.590;2023-01-13T15:07:53;4.13;;;1.10;;
7493;SDS011;3788;49.902;8.590;2023-01-13T15:10:21;2.60;;;1.00;;
7493;SDS011;3788;49.902;8.590;2023-01-13T15:12:52;5.07;;;1.33;;
7493;SDS011;3788;49.902;8.590;2023-01-13T15:15:21;2.40;;;1.17;;
7493;SDS011;3788;49.902;8.590;2023-01-13T15:17:49;5.00;;;1.50;;
7493;SDS011;3788;49.902;8.590;2023-01-13T15:20:17;4.40;;;1.50;;
7493;SDS011;3788;49.902;8.590;2023-01-13T15:22:46;1.90;;;1.00;;
7493;SDS011;3788;49.902;8.590;2023-01-13T15:25:13;3.73;;;1.40;;
7493;SDS011;3788;49.902;8.590;2023-01-13T15:27:40;3.30;;;1.13;;
7493;SDS011;3788;49.902;8.590;2023-01-13T15:30:13;2.90;;;1.63;;
7493;SDS011;3788;49.902;8.590;2023-01-13T15:32:41;3.13;;;1.30;;
7493;SDS011;3788;49.902;8.590;2023-01-13T15:35:08;4.17;;;1.20;;
7493;SDS011;3788;49.902;8.590;2023-01-13T15:37:37;4.37;;;1.47;;
7493;SDS011;3788;49.902;8.590;2023-01-13T15:40:08;3.20;;;1.40;;
7493;SDS011;3788;49.902;8.590;2023-01-13T15:42:38;5.17;;;1.57;;
7493;SDS011;3788;49.902;8.590;2023-01-13T15:45:35;3.83;;;1.43;;
7493;SDS011;3788;49.902;8.590;2023-01-13T15:48:20;6.77;;;1.53;;
7493;SDS011;3788;49.902;8.590;2023-01-13T15:50:49;2.50;;;1.37;;
7493;SDS011;3788;49.902;8.590;2023-01-13T15:53:16;4.53;;;1.60;;
7493;SDS011;3788;49.902;8.590;2023-01-13T15:55:43;3.40;;;1.30;;
7493;SDS011;3788;49.902;8.590;2023-01-13T15:58:12;3.17;;;1.40;;
7493;SDS011;3788;49.902;8.590;2023-01-13T16:00:41;3.57;;;1.97;;
7493;SDS011;3788;49.902;8.590;2023-01-13T16:03:10;2.43;;;1.00;;
7493;SDS011;3788;49.902;8.590;2023-01-13T16:05:38;3.33;;;1.47;;
7493;SDS011;3788;49.902;8.590;2023-01-13T16:08:07;6.00;;;1.70;;
7493;SDS011;3788;49.902;8.590;2023-01-13T16:10:38;4.17;;;1.50;;
7493;SDS011;3788;49.902;8.590;2023-01-13T16:13:05;7.53;;;2.13;;